CheckWX is a tool to help pilots better visualize weather data.  It is not intended as a substitute for an official pre-flight weather briefing.

01:01:52 UTC

KHUA METAR
Redstone AAF Airport
Redstone Arsnl Huntsville, Alabama, USA
Current

1 hour ago

KHUA 192358Z AUTO 26005KT 9SM SCT065 BKN085 BKN110 26/22 A3004 RMK AO2 LTG DSNT SW SLP167 T02580215 10361 20258 53020
Observed
Aug-19 @ 23:58 UTC
Wind
  • 260° at 5 KTS
Visibility
9 SM
Flight Rules
VFR
Cloud Levels
  • Scattered at 6,500' AGL
  • Broken at 8,500' AGL
  • Broken at 11,000' AGL
Temperature
26°C / 79°F
Dewpoint
22°C / 72°F
Humidity
79%
Altimeter
30.04" Hg
Pressure
1017.32 hPa
Previous

2 hours ago

KHUA 192258Z AUTO 19003KT 9SM SCT065 29/21 A3000 RMK AO2 LTG DSNT NE AND SW-NW SLP153 T02930207
Observed
Aug-19 @ 22:58 UTC
Wind
  • 190° at 3 KTS
Visibility
9 SM
Flight Rules
VFR
Cloud Levels
  • Scattered at 6,500' AGL
Temperature
29°C / 84°F
Dewpoint
21°C / 70°F
Heat Index
31°C / 88°F
Humidity
62%
Altimeter
30" Hg
Pressure
1015.92 hPa
Previous

3 hours ago

KHUA 192158Z AUTO 12009KT 10SM FEW070 32/20 A2998 RMK AO2 SLP146 T03150202
Observed
Aug-19 @ 21:58 UTC
Wind
  • 120° at 9 KTS
Visibility
10 SM
Flight Rules
VFR
Cloud Levels
  • Few at 7,000' AGL
Temperature
32°C / 90°F
Dewpoint
20°C / 68°F
Heat Index
34°C / 94°F
Humidity
49%
Altimeter
29.98" Hg
Pressure
1015.22 hPa